EYSA/SQQ METAR and TAF weather

Enter ICAO airport designator
Station Type Date Time Source
EYSA METAR 2019/12/11 15:20 UTC NOAA

EYSA 111520Z 15011KT CAVOK M02/M04 Q1016 R14L/29//95 R14R/29//95 BLU NOSIG


Station Type Date Time Source
EYSA Decoded METAR 2019/12/11 15:20 UTC NOAA

Siauliai Intl./Mil., Lithuania (EYSA) 55-53-38N 023-23-42E
Dec 11, 2019 - 10:20 AM EST / 2019.12.11 1520 UTC
Wind: from the SSE (150 degrees) at 13 MPH (11 KT):0
Visibility: greater than 7 mile(s):0
Temperature: 28 F (-2 C)
Windchill: 17 F (-8 C):1
Dew Point: 24 F (-4 C)
Relative Humidity: 86%
Pressure (altimeter): 30.00 in. Hg (1016 hPa)
ob: EYSA 111520Z 15011KT CAVOK M02/M04 Q1016 R14L/29//95 R14R/29//95 BLU NOSIG
cycle: 15

Station Type Date Time Source
EYSA TAF 2019/12/04 21:03 UTC NOAA

TAF TAF EYSA 042001Z 0421/0509 26012KT 7000 OVC006
TEMPO 0421/0502 3000 BR OVC004

Example: see airport list